Time;durP1;ratioP1;P1;durP2;ratioP2;P2;SDS_P1;SDS_P2;PMS_P1;PMS_P2;Temp;Humidity;BMP_temperature;BMP_pressure;BME280_temperature;BME280_humidity;BME280_pressure;Samples;Min_cycle;Max_cycle;Signal;HPM_P1;HPM_P2
2023/11/17 00:01:02;;;;;;;32.80;19.10;;;;;;;6.23;90.01;99574.83;129980;1270;99058;-79
2023/11/17 00:04:23;;;;;;;31.40;19.90;;;;;;;6.24;90.26;99571.37;130047;1268;98064;-79
2023/11/17 00:07:28;;;;;;;32.50;19.60;;;;;;;6.24;89.87;99577.00;129968;1269;97991;-79
2023/11/17 00:10:34;;;;;;;31.80;17.80;;;;;;;6.23;90.01;99575.89;129993;1268;98073;-77
2023/11/17 00:13:40;;;;;;;30.10;16.80;;;;;;;6.24;90.14;99570.59;129907;1268;97983;-79
2023/11/17 00:16:45;;;;;;;31.20;18.90;;;;;;;6.27;90.07;99566.33;129962;1268;98031;-79
2023/11/17 00:19:51;;;;;;;31.40;19.30;;;;;;;6.30;90.03;99561.98;130013;1277;98024;-79
2023/11/17 00:22:56;;;;;;;33.40;20.70;;;;;;;6.33;90.37;99566.02;129915;1264;97968;-80
2023/11/17 00:26:04;;;;;;;35.90;22.00;;;;;;;6.35;90.32;99564.05;129926;1268;97970;-79
2023/11/17 00:29:10;;;;;;;36.50;23.00;;;;;;;6.36;90.05;99556.16;129667;1277;98016;-79
2023/11/17 00:32:15;;;;;;;35.90;22.10;;;;;;;6.35;90.09;99557.81;129707;1277;97954;-80
2023/11/17 00:35:21;;;;;;;31.70;18.40;;;;;;;6.31;90.23;99560.30;129962;1269;97977;-79
2023/11/17 00:38:28;;;;;;;30.40;18.50;;;;;;;6.28;90.44;99557.86;129972;1268;98059;-80
2023/11/17 00:41:34;;;;;;;32.50;19.20;;;;;;;6.29;90.32;99554.27;129755;1268;98745;-79
2023/11/17 00:44:40;;;;;;;33.90;20.20;;;;;;;6.31;90.18;99551.45;130063;1264;99038;-78
2023/11/17 00:47:46;;;;;;;34.90;21.40;;;;;;;6.33;90.15;99552.00;130006;1267;99182;-77
2023/11/17 00:50:52;;;;;;;35.00;20.80;;;;;;;6.33;90.24;99550.97;129943;1264;97980;-78
2023/11/17 00:54:00;;;;;;;37.00;22.20;;;;;;;6.31;89.75;99548.11;130016;1270;98078;-78
2023/11/17 00:57:07;;;;;;;36.50;19.70;;;;;;;6.26;90.09;99548.06;130029;1268;98746;-77
2023/11/17 01:00:14;;;;;;;35.10;19.40;;;;;;;6.22;90.00;99547.84;130003;1268;99130;-78
2023/11/17 01:03:20;;;;;;;38.10;21.70;;;;;;;6.23;90.33;99540.73;129695;1270;98131;-80
2023/11/17 01:06:26;;;;;;;35.60;21.10;;;;;;;6.25;90.11;99540.15;129868;1268;98050;-80
2023/11/17 01:09:32;;;;;;;38.80;23.20;;;;;;;6.29;90.16;99541.61;129956;1267;98046;-77
2023/11/17 01:12:37;;;;;;;42.10;23.30;;;;;;;6.30;90.14;99543.23;129711;1271;99134;-78
2023/11/17 01:15:44;;;;;;;41.00;23.90;;;;;;;6.29;90.13;99540.69;130033;1269;98030;-78
2023/11/17 01:18:50;;;;;;;37.60;21.60;;;;;;;6.24;89.98;99547.54;129986;1270;99176;-78
2023/11/17 01:21:55;;;;;;;38.20;21.90;;;;;;;6.20;90.06;99544.88;130201;1267;97953;-78
2023/11/17 01:25:01;;;;;;;41.40;23.00;;;;;;;6.18;90.21;99544.73;129796;1278;98068;-78
2023/11/17 01:28:08;;;;;;;44.40;24.10;;;;;;;6.17;90.27;99549.42;130185;1267;98014;-78
2023/11/17 01:31:15;;;;;;;41.00;23.80;;;;;;;6.18;90.17;99549.16;129779;1279;98088;-78
2023/11/17 01:34:20;;;;;;;43.10;25.10;;;;;;;6.18;89.98;99546.10;130038;1268;98729;-78
2023/11/17 01:37:26;;;;;;;42.70;24.40;;;;;;;6.19;90.16;99545.87;129970;1268;98034;-79
2023/11/17 01:40:31;;;;;;;40.10;21.90;;;;;;;6.17;90.19;99539.52;129847;1270;99175;-78
2023/11/17 01:43:37;;;;;;;38.00;21.40;;;;;;;6.14;89.87;99538.02;130017;1268;97958;-77
2023/11/17 01:46:43;;;;;;;42.30;23.30;;;;;;;6.14;90.23;99538.38;130066;1278;99196;-78
2023/11/17 01:49:50;;;;;;;42.80;23.40;;;;;;;6.15;90.11;99538.13;130057;1268;98008;-78
2023/11/17 01:52:56;;;;;;;42.30;21.80;;;;;;;6.17;90.11;99533.52;130078;1269;97975;-78
2023/11/17 01:56:04;;;;;;;42.30;23.90;;;;;;;6.19;89.79;99528.88;129840;1269;99247;-78
2023/11/17 01:59:10;;;;;;;39.00;23.60;;;;;;;6.18;89.89;99529.04;129982;1269;99284;-79
2023/11/17 02:02:16;;;;;;;39.10;20.90;;;;;;;6.17;89.96;99528.20;129678;1266;99092;-78
2023/11/17 02:05:24;;;;;;;38.40;19.90;;;;;;;6.15;90.03;99526.27;129908;1277;99065;-80
2023/11/17 02:08:41;;;;;;;36.10;21.00;;;;;;;6.15;89.99;99523.06;129823;1268;99170;-78
2023/11/17 02:11:58;;;;;;;39.10;21.10;;;;;;;6.15;90.14;99522.23;129964;1279;98145;-79
2023/11/17 02:15:10;;;;;;;38.30;21.70;;;;;;;6.17;90.06;99523.23;130012;1268;98022;-78
2023/11/17 02:18:16;;;;;;;39.80;21.00;;;;;;;6.20;90.10;99520.19;129773;1270;98035;-78
2023/11/17 02:21:29;;;;;;;36.80;21.20;;;;;;;6.20;89.76;99523.70;129894;1269;99180;-77
2023/11/17 02:24:41;;;;;;;;;;;;;;;6.19;89.71;99523.23;130035;1270;98647;-77
2023/11/17 02:27:51;;;;;;;;;;;;;;;6.18;89.71;99528.84;130012;1267;97955;-77
2023/11/17 02:30:59;;;;;;;33.80;19.70;;;;;;;6.14;89.76;99532.58;129931;1279;97997;-78
2023/11/17 02:34:08;;;;;;;32.40;18.30;;;;;;;6.08;89.81;99531.00;129852;1269;98081;-79
2023/11/17 02:37:15;;;;;;;36.50;18.40;;;;;;;6.05;89.90;99527.69;129665;1271;98061;-79
2023/11/17 02:40:22;;;;;;;35.20;17.80;;;;;;;6.04;90.04;99534.50;129577;1277;98055;-79
2023/11/17 02:43:29;;;;;;;34.90;19.30;;;;;;;6.09;89.83;99535.26;129836;1267;99282;-79
2023/11/17 02:46:35;;;;;;;36.40;20.10;;;;;;;6.15;89.84;99536.70;130011;1270;97979;-80
2023/11/17 02:49:41;;;;;;;37.90;20.50;;;;;;;6.18;89.74;99531.45;129963;1267;99148;-78
2023/11/17 02:53:00;;;;;;;41.70;22.90;;;;;;;6.21;89.82;99532.42;129742;1279;98063;-78
2023/11/17 02:56:06;;;;;;;51.80;30.70;;;;;;;6.20;89.85;99530.62;129979;1267;97963;-81
2023/11/17 02:59:13;;;;;;;52.40;33.40;;;;;;;6.20;89.75;99530.20;130017;1268;99084;-79
2023/11/17 03:02:19;;;;;;;47.50;26.70;;;;;;;6.18;89.70;99527.03;129978;1267;97992;-77
2023/11/17 03:05:26;;;;;;;34.20;19.60;;;;;;;6.15;89.47;99525.05;129924;1267;99158;-78
2023/11/17 03:08:32;;;;;;;32.90;19.40;;;;;;;6.16;89.81;99524.23;130004;1278;99173;-78
2023/11/17 03:11:38;;;;;;;30.30;18.40;;;;;;;6.18;90.04;99523.17;129958;1267;99231;-78
2023/11/17 03:14:43;;;;;;;31.40;17.40;;;;;;;6.21;89.78;99522.53;129890;1267;99226;-78
2023/11/17 03:17:51;;;;;;;31.00;18.10;;;;;;;6.22;89.80;99517.02;130139;1265;98777;-79
2023/11/17 03:21:01;;;;;;;31.10;17.70;;;;;;;6.21;89.67;99516.57;130125;1263;98558;-80
2023/11/17 03:24:10;;;;;;;33.10;17.80;;;;;;;6.20;89.72;99518.97;129916;1267;99186;-80
2023/11/17 03:27:18;;;;;;;29.90;16.90;;;;;;;6.15;89.67;99517.67;129872;1277;98646;-80
2023/11/17 03:30:24;;;;;;;30.40;16.30;;;;;;;6.13;89.93;99515.52;129665;1265;99180;-77
2023/11/17 03:33:33;;;;;;;29.70;16.90;;;;;;;6.15;89.72;99513.63;129956;1269;98179;-77
2023/11/17 03:36:39;;;;;;;29.90;17.40;;;;;;;6.17;89.85;99513.95;130003;1264;98088;-79
2023/11/17 03:39:44;;;;;;;27.30;17.40;;;;;;;6.19;89.70;99515.09;129969;1267;99172;-76
2023/11/17 03:42:50;;;;;;;32.80;17.60;;;;;;;6.20;89.62;99516.48;129863;1267;97986;-78
2023/11/17 03:46:00;;;;;;;33.00;18.10;;;;;;;6.20;89.95;99518.27;130153;1267;99160;-77
2023/11/17 03:49:07;;;;;;;32.00;18.30;;;;;;;6.18;89.46;99520.33;130078;1268;99177;-77
2023/11/17 03:52:14;;;;;;;32.40;17.70;;;;;;;6.15;89.71;99519.02;130010;1267;99019;-78
2023/11/17 03:55:20;;;;;;;32.50;17.50;;;;;;;6.12;89.43;99519.52;129868;1267;97944;-80
2023/11/17 03:58:29;;;;;;;33.30;18.40;;;;;;;6.10;89.32;99523.02;129815;1267;98746;-81
2023/11/17 04:01:37;;;;;;;33.50;19.50;;;;;;;6.10;89.60;99518.92;129727;1267;99003;-81
2023/11/17 04:04:42;;;;;;;27.80;16.40;;;;;;;6.14;89.65;99515.27;129919;1270;99137;-79
2023/11/17 04:07:48;;;;;;;33.90;20.40;;;;;;;6.15;89.70;99515.73;129928;1268;98107;-80
2023/11/17 04:10:54;;;;;;;41.40;22.80;;;;;;;6.14;89.56;99514.37;130035;1269;98771;-80
2023/11/17 04:14:00;;;;;;;40.10;23.00;;;;;;;6.10;89.36;99513.63;129937;1267;98002;-78
2023/11/17 04:17:05;;;;;;;40.20;20.70;;;;;;;6.07;89.50;99510.10;129926;1269;98061;-78
2023/11/17 04:20:14;;;;;;;37.20;21.30;;;;;;;6.05;89.62;99508.29;129888;1270;98775;-78
2023/11/17 04:23:20;;;;;;;41.20;22.90;;;;;;;6.04;89.65;99510.02;129955;1267;99170;-78
2023/11/17 04:26:26;;;;;;;42.80;24.70;;;;;;;6.04;89.40;99512.42;129932;1269;98749;-78
2023/11/17 04:29:31;;;;;;;43.90;24.70;;;;;;;6.08;89.54;99514.55;129997;1267;98032;-78
2023/11/17 04:32:38;;;;;;;41.90;24.60;;;;;;;6.10;89.42;99515.44;129951;1267;98663;-77
2023/11/17 04:35:43;;;;;;;46.60;26.00;;;;;;;6.11;89.36;99513.21;129995;1267;99151;-78
2023/11/17 04:38:50;;;;;;;50.00;28.30;;;;;;;6.09;89.36;99513.35;129979;1267;98066;-78
2023/11/17 04:41:56;;;;;;;51.20;26.60;;;;;;;6.07;89.42;99512.52;129934;1269;97967;-78
2023/11/17 04:45:03;;;;;;;49.20;27.30;;;;;;;6.03;89.25;99512.16;129957;1276;98761;-78
2023/11/17 04:48:09;;;;;;;57.20;30.90;;;;;;;6.04;89.37;99519.38;129969;1267;98027;-78
2023/11/17 04:51:16;;;;;;;50.70;27.70;;;;;;;6.07;89.33;99517.98;129954;1267;98053;-81
2023/11/17 04:54:22;;;;;;;50.80;28.00;;;;;;;6.08;89.06;99517.14;129922;1267;99160;-78
2023/11/17 04:57:28;;;;;;;49.40;27.30;;;;;;;6.09;89.17;99516.55;129920;1267;97980;-78
2023/11/17 05:00:33;;;;;;;49.70;27.30;;;;;;;6.08;89.14;99518.98;129915;1267;99188;-78
2023/11/17 05:03:40;;;;;;;50.10;28.30;;;;;;;6.05;89.10;99519.30;129954;1270;97999;-78
2023/11/17 05:06:46;;;;;;;48.10;25.00;;;;;;;6.02;88.99;99519.33;129941;1267;99171;-79
2023/11/17 05:09:52;;;;;;;47.70;24.40;;;;;;;6.00;88.94;99518.27;129935;1269;99150;-78
2023/11/17 05:12:57;;;;;;;48.80;26.80;;;;;;;6.00;88.92;99517.80;129940;1268;98003;-77
2023/11/17 05:16:04;;;;;;;51.30;27.40;;;;;;;6.01;89.20;99514.88;129698;1263;99115;-78
2023/11/17 05:19:10;;;;;;;49.20;28.30;;;;;;;6.04;88.90;99518.07;130032;1267;98084;-78
2023/11/17 05:22:16;;;;;;;54.20;28.80;;;;;;;6.05;89.00;99516.04;130006;1264;99160;-78
2023/11/17 05:25:22;;;;;;;50.10;26.10;;;;;;;6.04;88.87;99517.96;129968;1269;97992;-78
2023/11/17 05:28:28;;;;;;;48.50;28.30;;;;;;;6.02;88.90;99516.88;129892;1268;99049;-78
2023/11/17 05:31:33;;;;;;;49.50;28.90;;;;;;;6.00;88.67;99519.33;129952;1275;97992;-80
2023/11/17 05:34:39;;;;;;;45.10;24.20;;;;;;;5.96;88.78;99522.07;129975;1265;99201;-78
2023/11/17 05:37:44;;;;;;;46.00;24.50;;;;;;;5.93;88.93;99526.00;130040;1267;98061;-78
2023/11/17 05:40:50;;;;;;;50.00;28.40;;;;;;;5.94;88.95;99527.68;129934;1267;99180;-78
2023/11/17 05:43:56;;;;;;;65.60;35.90;;;;;;;5.97;88.54;99530.61;129930;1267;99241;-78
2023/11/17 05:47:01;;;;;;;63.00;34.80;;;;;;;6.00;88.86;99533.46;129889;1267;97961;-78
2023/11/17 05:50:11;;;;;;;50.70;28.90;;;;;;;6.02;88.42;99537.39;129995;1265;99037;-79
2023/11/17 05:53:17;;;;;;;51.80;28.40;;;;;;;5.99;88.24;99540.83;130027;1267;98810;-78
2023/11/17 05:56:22;;;;;;;46.60;27.30;;;;;;;5.96;88.69;99545.02;129991;1264;99062;-79
2023/11/17 05:59:28;;;;;;;52.80;29.60;;;;;;;5.94;88.45;99546.03;129944;1267;98006;-80
2023/11/17 06:02:33;;;;;;;39.40;22.80;;;;;;;5.92;88.62;99549.95;129939;1267;99173;-75
2023/11/17 06:05:39;;;;;;;42.80;23.30;;;;;;;5.87;88.64;99549.44;129897;1264;99065;-78
2023/11/17 06:08:45;;;;;;;43.10;24.50;;;;;;;5.87;88.65;99554.38;129881;1263;97967;-78
2023/11/17 06:11:51;;;;;;;44.60;25.50;;;;;;;5.87;88.53;99552.27;129713;1268;97967;-78
2023/11/17 06:14:56;;;;;;;45.70;25.50;;;;;;;5.86;88.45;99553.73;129968;1267;98068;-77
2023/11/17 06:18:04;;;;;;;47.40;26.50;;;;;;;5.87;88.24;99554.04;129968;1267;97973;-78
2023/11/17 06:21:10;;;;;;;45.50;25.50;;;;;;;5.88;88.45;99556.64;129930;1267;98748;-78
2023/11/17 06:24:15;;;;;;;41.50;24.20;;;;;;;5.87;88.28;99559.17;129974;1269;97966;-79
2023/11/17 06:27:21;;;;;;;43.30;24.90;;;;;;;5.86;88.10;99560.52;129928;1267;99266;-78
2023/11/17 06:30:27;;;;;;;37.60;20.40;;;;;;;5.82;88.33;99562.27;129941;1267;97979;-77
2023/11/17 06:33:32;;;;;;;40.90;21.30;;;;;;;5.80;88.04;99561.42;129988;1267;98021;-80
2023/11/17 06:36:41;;;;;;;46.50;24.70;;;;;;;5.79;88.19;99561.34;129955;1264;97983;-79
2023/11/17 06:39:47;;;;;;;44.70;25.00;;;;;;;5.83;88.38;99562.21;129970;1269;99058;-77
2023/11/17 06:42:53;;;;;;;40.60;22.80;;;;;;;5.87;88.14;99562.33;129936;1267;99232;-78
2023/11/17 06:45:59;;;;;;;39.50;22.90;;;;;;;5.89;88.17;99558.59;129951;1263;98851;-78
2023/11/17 06:49:05;;;;;;;41.20;23.30;;;;;;;5.90;87.75;99558.75;129965;1279;98437;-78
2023/11/17 06:52:12;;;;;;;42.10;25.20;;;;;;;5.87;87.98;99558.98;129700;1270;99148;-79
2023/11/17 06:55:19;;;;;;;44.00;24.70;;;;;;;5.87;88.09;99563.89;129942;1264;97973;-78
2023/11/17 06:58:25;;;;;;;41.30;22.30;;;;;;;5.87;88.16;99568.04;129688;1270;98081;-78
2023/11/17 07:01:32;;;;;;;50.00;21.00;;;;;;;5.87;88.30;99572.74;129945;1267;97999;-78
2023/11/17 07:04:38;;;;;;;36.40;21.50;;;;;;;5.91;88.05;99574.01;130005;1264;98615;-78
2023/11/17 07:07:45;;;;;;;37.30;20.60;;;;;;;5.94;87.98;99579.38;129953;1267;97965;-78
2023/11/17 07:10:51;;;;;;;37.80;21.10;;;;;;;5.96;88.03;99584.33;129961;1267;99192;-78
2023/11/17 07:14:01;;;;;;;37.90;20.50;;;;;;;6.00;87.69;99587.88;129982;1263;98656;-78
2023/11/17 07:17:07;;;;;;;38.10;21.90;;;;;;;6.01;87.92;99588.27;129965;1267;98003;-78
2023/11/17 07:20:13;;;;;;;40.80;23.20;;;;;;;6.01;87.90;99586.67;129976;1263;98626;-79
2023/11/17 07:23:19;;;;;;;39.10;22.00;;;;;;;6.01;87.53;99586.05;129940;1264;97994;-79
2023/11/17 07:26:24;;;;;;;41.30;22.20;;;;;;;5.97;87.98;99592.19;129925;1267;98090;-79
2023/11/17 07:29:31;;;;;;;37.80;20.20;;;;;;;5.96;88.01;99593.04;129952;1264;97980;-79
2023/11/17 07:32:38;;;;;;;37.50;22.40;;;;;;;5.95;87.87;99599.23;130076;1268;97967;-78
2023/11/17 07:35:43;;;;;;;38.80;21.60;;;;;;;5.99;87.76;99593.42;130127;1264;98045;-83
2023/11/17 07:38:54;;;;;;;37.40;21.50;;;;;;;6.02;87.55;99594.36;130018;1264;98049;-78
2023/11/17 07:41:59;;;;;;;39.90;22.20;;;;;;;6.05;87.79;99596.22;129928;1267;97981;-77
2023/11/17 07:45:11;;;;;;;39.80;22.50;;;;;;;6.05;87.52;99597.45;129915;1264;97974;-79
2023/11/17 07:48:17;;;;;;;35.00;20.70;;;;;;;6.02;87.45;99596.30;130009;1267;98735;-78
2023/11/17 07:51:24;;;;;;;40.80;22.50;;;;;;;6.00;87.63;99597.21;129954;1267;97980;-78
2023/11/17 07:54:30;;;;;;;38.80;21.30;;;;;;;5.98;87.68;99604.14;129935;1268;99176;-78
2023/11/17 07:57:36;;;;;;;33.80;18.80;;;;;;;5.95;87.75;99609.48;129936;1268;97999;-78
2023/11/17 08:00:43;;;;;;;36.70;20.00;;;;;;;5.95;87.92;99612.49;129942;1264;99078;-78
2023/11/17 08:03:48;;;;;;;36.70;20.60;;;;;;;5.95;87.67;99616.88;129928;1267;97985;-80
2023/11/17 08:06:54;;;;;;;38.90;21.30;;;;;;;5.93;87.50;99617.05;129982;1264;98643;-78
2023/11/17 08:10:00;;;;;;;34.80;19.20;;;;;;;5.92;87.73;99612.80;129948;1267;99192;-78
2023/11/17 08:13:05;;;;;;;33.00;18.60;;;;;;;5.94;87.58;99615.42;129946;1267;98035;-78
2023/11/17 08:16:11;;;;;;;29.60;18.30;;;;;;;5.96;87.57;99620.23;129926;1266;98045;-78
2023/11/17 08:19:17;;;;;;;33.30;19.00;;;;;;;5.92;87.49;99624.92;129981;1267;98046;-78
2023/11/17 08:22:24;;;;;;;35.40;18.00;;;;;;;5.92;87.42;99628.61;129956;1267;99171;-78
2023/11/17 08:25:31;;;;;;;33.60;18.60;;;;;;;5.95;87.76;99628.35;129964;1278;99161;-77
2023/11/17 08:28:36;;;;;;;47.10;23.20;;;;;;;6.00;87.75;99629.16;129953;1267;98058;-78
2023/11/17 08:31:42;;;;;;;36.00;20.60;;;;;;;6.06;87.58;99633.92;129922;1268;97972;-78
2023/11/17 08:34:47;;;;;;;29.80;16.60;;;;;;;6.11;87.24;99635.92;129957;1267;98046;-78
2023/11/17 08:37:55;;;;;;;32.10;18.80;;;;;;;6.12;87.27;99636.54;129910;1268;98761;-79
2023/11/17 08:41:00;;;;;;;39.50;22.00;;;;;;;6.15;87.27;99642.16;129979;1267;97985;-78
2023/11/17 08:44:08;;;;;;;47.70;27.00;;;;;;;6.14;87.41;99646.45;129955;1264;98777;-78
2023/11/17 08:47:14;;;;;;;45.30;25.40;;;;;;;6.16;87.47;99648.43;129957;1265;99000;-79
2023/11/17 08:50:19;;;;;;;30.40;16.80;;;;;;;6.15;87.35;99650.47;129953;1268;98728;-79
2023/11/17 08:53:26;;;;;;;38.10;21.70;;;;;;;6.13;87.14;99652.70;129923;1267;99151;-78
2023/11/17 08:56:32;;;;;;;29.50;17.10;;;;;;;6.15;87.28;99656.27;130036;1267;97975;-79
2023/11/17 08:59:39;;;;;;;31.50;18.40;;;;;;;6.16;87.14;99660.24;129952;1267;97976;-79
2023/11/17 09:02:46;;;;;;;28.80;17.90;;;;;;;6.18;86.89;99666.22;130038;1267;99206;-79
2023/11/17 09:05:51;;;;;;;34.40;20.20;;;;;;;6.21;87.16;99670.02;129985;1267;98060;-80
2023/11/17 09:08:57;;;;;;;35.90;20.70;;;;;;;6.22;87.11;99666.56;130173;1267;97982;-81
2023/11/17 09:12:04;;;;;;;36.10;19.30;;;;;;;6.23;86.84;99672.86;130097;1267;97964;-80
2023/11/17 09:15:12;;;;;;;35.10;20.80;;;;;;;6.21;87.03;99673.20;129974;1267;97970;-78
2023/11/17 09:18:19;;;;;;;32.30;19.40;;;;;;;6.20;86.76;99673.42;129942;1267;99154;-78
2023/11/17 09:21:24;;;;;;;27.40;16.20;;;;;;;6.15;86.65;99677.27;129961;1264;99158;-79
2023/11/17 09:24:30;;;;;;;26.50;15.60;;;;;;;6.07;86.76;99674.63;129793;1265;98760;-78
2023/11/17 09:27:35;;;;;;;27.70;16.60;;;;;;;6.04;86.89;99679.46;129926;1268;98069;-78
2023/11/17 09:30:41;;;;;;;26.30;16.80;;;;;;;6.06;86.66;99682.98;129921;1267;97970;-79
2023/11/17 09:33:48;;;;;;;38.20;21.90;;;;;;;6.06;86.87;99681.46;129944;1267;97953;-78
2023/11/17 09:36:54;;;;;;;32.70;20.50;;;;;;;6.06;86.61;99680.55;129997;1268;97970;-78
2023/11/17 09:40:00;;;;;;;33.70;21.00;;;;;;;6.09;86.53;99683.80;129978;1267;98032;-78
2023/11/17 09:43:18;;;;;;;30.50;18.80;;;;;;;6.11;87.01;99680.96;129987;1267;97955;-78
2023/11/17 09:46:29;;;;;;;28.80;18.40;;;;;;;6.11;86.67;99679.57;129945;1264;99069;-78
2023/11/17 09:49:38;;;;;;;37.00;18.50;;;;;;;6.09;86.56;99680.92;130065;1264;98067;-78
2023/11/17 09:52:46;;;;;;;24.60;14.10;;;;;;;6.08;87.01;99680.35;130011;1264;99149;-78
2023/11/17 09:55:54;;;;;;;22.90;14.50;;;;;;;6.07;86.61;99679.91;129926;1267;97989;-78
2023/11/17 09:59:00;;;;;;;27.90;16.40;;;;;;;6.08;86.86;99682.61;129956;1268;99131;-78
2023/11/17 10:02:08;;;;;;;25.10;15.80;;;;;;;6.13;86.39;99688.39;130042;1267;98074;-79
2023/11/17 10:05:14;;;;;;;22.00;14.20;;;;;;;6.07;86.53;99687.65;129890;1268;99185;-80
2023/11/17 10:08:23;;;;;;;26.50;14.90;;;;;;;6.09;86.34;99689.40;129869;1267;98095;-81
2023/11/17 10:11:30;;;;;;;24.80;15.40;;;;;;;6.08;86.60;99689.58;129893;1264;99176;-79
2023/11/17 10:14:37;;;;;;;28.20;17.00;;;;;;;6.09;86.24;99688.52;129996;1270;99170;-78
2023/11/17 10:17:46;;;;;;;29.60;16.30;;;;;;;6.08;86.34;99692.34;129814;1268;97983;-79
2023/11/17 10:20:52;;;;;;;23.00;14.10;;;;;;;6.04;86.66;99694.67;130008;1267;98053;-80
2023/11/17 10:23:59;;;;;;;26.50;15.20;;;;;;;6.03;86.42;99697.58;130063;1263;98024;-79
2023/11/17 10:27:06;;;;;;;27.00;17.50;;;;;;;6.06;86.54;99698.58;129975;1268;98739;-80
2023/11/17 10:30:15;;;;;;;23.20;14.30;;;;;;;6.11;86.48;99698.48;130070;1263;98665;-78
2023/11/17 10:33:29;;;;;;;24.70;16.80;;;;;;;6.11;86.44;99693.00;129953;1264;97971;-79
2023/11/17 10:36:57;;;;;;;23.30;15.30;;;;;;;6.13;86.14;99692.43;129952;1264;98063;-78
2023/11/17 10:40:03;;;;;;;22.70;15.20;;;;;;;6.17;86.30;99688.39;129914;1268;97986;-78
2023/11/17 10:43:11;;;;;;;22.50;14.50;;;;;;;6.17;86.23;99694.52;129882;1268;98054;-79
2023/11/17 10:46:20;;;;;;;23.80;15.70;;;;;;;6.15;86.07;99696.67;129940;1268;98000;-77
2023/11/17 10:49:25;;;;;;;26.30;15.70;;;;;;;6.07;85.86;99697.95;129899;1265;97990;-78
2023/11/17 10:52:31;;;;;;;22.90;13.90;;;;;;;6.05;86.08;99698.77;130098;1267;98041;-78
2023/11/17 10:55:37;;;;;;;21.30;13.90;;;;;;;6.07;86.38;99692.42;130009;1265;99201;-78
2023/11/17 10:58:55;;;;;;;22.70;14.90;;;;;;;6.13;86.33;99696.33;130057;1267;99145;-77
2023/11/17 11:02:01;;;;;;;24.60;16.50;;;;;;;6.16;85.91;99700.16;130060;1266;97993;-79
2023/11/17 11:05:13;;;;;;;26.20;17.50;;;;;;;6.16;85.96;99700.88;130050;1267;99176;-79
2023/11/17 11:08:22;;;;;;;21.30;15.70;;;;;;;6.12;86.35;99698.58;130008;1267;98036;-79
2023/11/17 11:11:29;;;;;;;27.80;20.20;;;;;;;6.04;86.10;99704.55;130046;1265;98069;-79
2023/11/17 11:14:36;;;;;;;20.80;13.70;;;;;;;5.96;85.95;99709.50;129977;1267;98860;-79
2023/11/17 11:17:52;;;;;;;22.50;14.70;;;;;;;5.98;86.57;99711.98;129969;1266;99059;-78
2023/11/17 11:20:59;;;;;;;22.30;13.60;;;;;;;5.98;86.30;99713.23;130092;1264;99164;-78
2023/11/17 11:24:06;;;;;;;18.00;11.90;;;;;;;5.97;86.22;99719.48;129969;1267;99160;-78
2023/11/17 11:27:14;;;;;;;26.00;14.80;;;;;;;5.94;86.17;99719.89;129961;1265;98439;-78
2023/11/17 11:30:23;;;;;;;18.40;12.70;;;;;;;5.94;86.22;99722.00;129907;1268;97968;-80
2023/11/17 11:33:36;;;;;;;17.50;11.80;;;;;;;5.98;86.43;99719.04;129669;1264;98064;-79
2023/11/17 11:36:45;;;;;;;17.50;12.00;;;;;;;5.97;86.32;99719.11;129998;1265;98665;-79
2023/11/17 11:39:51;;;;;;;16.90;11.50;;;;;;;5.99;86.10;99718.43;129974;1268;99167;-79
2023/11/17 11:42:57;;;;;;;17.30;11.60;;;;;;;5.97;86.39;99721.41;130030;1263;97999;-80
2023/11/17 11:46:04;;;;;;;17.90;12.70;;;;;;;5.97;86.29;99721.08;129943;1267;97986;-80
2023/11/17 11:49:14;;;;;;;15.30;10.30;;;;;;;5.92;86.37;99721.64;130114;1267;97977;-79
2023/11/17 11:52:25;;;;;;;15.20;10.20;;;;;;;5.89;86.67;99726.45;129969;1264;97944;-78
2023/11/17 11:55:33;;;;;;;16.40;11.00;;;;;;;5.92;86.59;99727.69;129982;1264;99160;-78
2023/11/17 11:58:43;;;;;;;15.10;10.60;;;;;;;5.94;86.32;99729.43;129865;1268;189819;-78
2023/11/17 12:01:51;;;;;;;18.60;10.70;;;;;;;5.93;86.38;99730.45;129928;1267;98060;-78
2023/11/17 12:05:01;;;;;;;15.10;10.60;;;;;;;5.94;86.18;99737.05;130033;1267;98079;-79
2023/11/17 12:08:27;;;;;;;17.60;10.30;;;;;;;5.92;86.00;99736.11;130042;1267;97984;-78
2023/11/17 12:11:36;;;;;;;17.70;12.30;;;;;;;5.90;86.21;99737.02;129986;1264;97970;-78
2023/11/17 12:14:44;;;;;;;18.30;11.70;;;;;;;5.84;86.48;99743.36;130202;1268;99163;-78
2023/11/17 12:17:58;;;;;;;21.20;11.00;;;;;;;5.74;86.25;99744.56;130025;1268;97965;-78
2023/11/17 12:21:17;;;;;;;17.80;11.60;;;;;;;5.64;86.33;99746.89;129980;1267;98399;-78
2023/11/17 12:24:23;;;;;;;16.40;10.40;;;;;;;5.55;86.63;99749.95;129827;1267;99130;-77
2023/11/17 12:27:30;;;;;;;16.40;10.20;;;;;;;5.53;86.51;99747.89;129895;1268;98000;-78
2023/11/17 12:30:36;;;;;;;18.10;12.10;;;;;;;5.58;86.79;99749.69;129963;1266;97987;-78
2023/11/17 12:33:43;;;;;;;15.80;11.00;;;;;;;5.62;86.28;99750.39;129943;1267;99148;-78
2023/11/17 12:36:56;;;;;;;18.10;11.70;;;;;;;5.60;86.57;99755.74;130028;1267;97980;-78
2023/11/17 12:40:15;;;;;;;21.70;14.40;;;;;;;5.53;86.31;99761.65;129836;1265;97959;-80
2023/11/17 12:43:21;;;;;;;17.50;10.50;;;;;;;5.40;86.47;99759.20;129850;1264;99103;-79
2023/11/17 12:46:30;;;;;;;28.70;20.90;;;;;;;5.33;86.34;99759.47;129964;1267;98013;-78
2023/11/17 12:49:36;;;;;;;21.10;12.90;;;;;;;5.25;86.37;99759.45;131112;1263;99177;-78
2023/11/17 12:52:57;;;;;;;36.70;28.90;;;;;;;5.21;86.66;99761.85;129760;1267;97976;-78
2023/11/17 12:56:03;;;;;;;23.50;14.70;;;;;;;5.24;86.75;99763.38;129921;1267;97949;-78
2023/11/17 12:59:12;;;;;;;19.00;12.90;;;;;;;5.34;86.80;99767.48;129943;1282;98901;-79
2023/11/17 13:02:17;;;;;;;16.50;11.30;;;;;;;5.35;86.62;99768.65;129979;1266;98086;-80
2023/11/17 13:05:23;;;;;;;19.60;12.00;;;;;;;5.37;86.47;99769.54;129974;1267;98016;-78
2023/11/17 13:08:29;;;;;;;17.20;10.30;;;;;;;5.34;86.71;99768.16;129904;1267;99112;-81
2023/11/17 13:11:39;;;;;;;18.40;11.30;;;;;;;5.27;86.47;99773.16;130008;1268;99046;-80
2023/11/17 13:14:45;;;;;;;16.90;11.20;;;;;;;5.26;86.67;99776.61;130003;1265;99151;-79
2023/11/17 13:17:52;;;;;;;15.30;10.30;;;;;;;5.28;86.56;99780.32;129974;1267;99176;-78
2023/11/17 13:21:00;;;;;;;16.80;10.80;;;;;;;5.23;86.40;99779.88;130006;1268;99152;-79
2023/11/17 13:24:08;;;;;;;17.50;10.50;;;;;;;5.16;86.20;99785.82;129968;1264;98104;-79
2023/11/17 13:27:14;;;;;;;19.50;12.30;;;;;;;5.15;86.49;99790.29;130030;1263;98080;-78
2023/11/17 13:30:21;;;;;;;25.60;15.00;;;;;;;5.05;86.38;99798.42;129991;1266;98003;-78
2023/11/17 13:33:41;;;;;;;21.00;12.80;;;;;;;4.98;86.19;99796.73;130014;1267;98579;-78
2023/11/17 13:36:46;;;;;;;29.70;16.50;;;;;;;4.97;86.59;99799.36;129953;1268;97993;-78
2023/11/17 13:39:52;;;;;;;16.60;11.50;;;;;;;4.97;86.51;99798.14;130069;1267;97965;-78
2023/11/17 13:42:58;;;;;;;13.90;9.40;;;;;;;4.97;86.57;99800.92;130030;1267;98745;-78
2023/11/17 13:46:06;;;;;;;16.00;11.80;;;;;;;4.98;86.46;99802.80;129952;1267;99151;-78
2023/11/17 13:49:15;;;;;;;12.40;9.00;;;;;;;4.98;86.21;99805.38;129969;1268;98323;-77
2023/11/17 13:52:22;;;;;;;13.90;8.50;;;;;;;4.91;86.27;99808.43;130011;1268;98060;-78
2023/11/17 13:55:28;;;;;;;11.10;7.60;;;;;;;4.88;86.55;99808.73;129993;1263;98565;-79
2023/11/17 13:58:35;;;;;;;12.10;8.00;;;;;;;4.89;86.49;99809.91;129974;1268;98757;-80
2023/11/17 14:01:45;;;;;;;10.90;7.40;;;;;;;4.85;86.56;99805.79;129919;1267;99151;-79
2023/11/17 14:04:55;;;;;;;14.20;9.40;;;;;;;4.83;86.63;99802.11;129901;1266;99046;-79
2023/11/17 14:08:01;;;;;;;13.30;8.80;;;;;;;4.82;86.50;99801.64;129975;1264;98091;-79
2023/11/17 14:11:10;;;;;;;12.40;8.50;;;;;;;4.71;86.43;99804.31;129903;1267;99193;-78
2023/11/17 14:14:16;;;;;;;10.80;8.00;;;;;;;4.72;86.73;99813.74;129947;1267;97993;-78
2023/11/17 14:17:21;;;;;;;10.50;7.50;;;;;;;4.71;86.27;99824.55;130000;1268;98055;-78
2023/11/17 14:20:30;;;;;;;10.40;7.60;;;;;;;4.63;86.19;99830.36;130087;1266;97968;-78
2023/11/17 14:23:37;;;;;;;8.90;6.50;;;;;;;4.57;86.36;99832.57;130013;1265;98399;-79